sensor_id;sensor_type;location;lat;lon;timestamp;pressure;altitude;pressure_sealevel;temperature
19644;BMP180;9970;-36.854;174.870;2023-09-08T00:01:02;102890.00;;;16.40
19644;BMP180;9970;-36.854;174.870;2023-09-08T00:03:36;102873.00;;;16.40
19644;BMP180;9970;-36.854;174.870;2023-09-08T00:06:09;102867.00;;;16.50
19644;BMP180;9970;-36.854;174.870;2023-09-08T00:08:42;102872.00;;;16.50
19644;BMP180;9970;-36.854;174.870;2023-09-08T00:11:15;102865.00;;;16.50
19644;BMP180;9970;-36.854;174.870;2023-09-08T00:13:48;102870.00;;;16.50
19644;BMP180;9970;-36.854;174.870;2023-09-08T00:16:21;102857.00;;;16.50
19644;BMP180;9970;-36.854;174.870;2023-09-08T00:18:55;102860.00;;;16.50
19644;BMP180;9970;-36.854;174.870;2023-09-08T00:21:29;102862.00;;;16.50
19644;BMP180;9970;-36.854;174.870;2023-09-08T00:24:02;102859.00;;;16.50
19644;BMP180;9970;-36.854;174.870;2023-09-08T00:26:35;102865.00;;;16.50
19644;BMP180;9970;-36.854;174.870;2023-09-08T00:29:08;102859.00;;;16.50
19644;BMP180;9970;-36.854;174.870;2023-09-08T00:31:43;102859.00;;;16.50
19644;BMP180;9970;-36.854;174.870;2023-09-08T00:34:16;102858.00;;;16.50
19644;BMP180;9970;-36.854;174.870;2023-09-08T00:36:49;102852.00;;;16.50
19644;BMP180;9970;-36.854;174.870;2023-09-08T00:39:22;102851.00;;;16.60
19644;BMP180;9970;-36.854;174.870;2023-09-08T00:41:55;102859.00;;;16.60
19644;BMP180;9970;-36.854;174.870;2023-09-08T00:44:28;102862.00;;;16.60
19644;BMP180;9970;-36.854;174.870;2023-09-08T00:47:01;102868.00;;;16.60
19644;BMP180;9970;-36.854;174.870;2023-09-08T00:49:34;102862.00;;;16.60
19644;BMP180;9970;-36.854;174.870;2023-09-08T00:52:15;102869.00;;;16.60
19644;BMP180;9970;-36.854;174.870;2023-09-08T00:54:47;102856.00;;;16.60
19644;BMP180;9970;-36.854;174.870;2023-09-08T00:57:20;102857.00;;;16.60
19644;BMP180;9970;-36.854;174.870;2023-09-08T00:59:54;102857.00;;;16.60
19644;BMP180;9970;-36.854;174.870;2023-09-08T01:02:32;102851.00;;;16.60
19644;BMP180;9970;-36.854;174.870;2023-09-08T01:05:09;102857.00;;;16.60
19644;BMP180;9970;-36.854;174.870;2023-09-08T01:07:44;102861.00;;;16.70
19644;BMP180;9970;-36.854;174.870;2023-09-08T01:10:17;102859.00;;;16.70
19644;BMP180;9970;-36.854;174.870;2023-09-08T01:12:51;102853.00;;;16.70
19644;BMP180;9970;-36.854;174.870;2023-09-08T01:15:24;102863.00;;;16.70
19644;BMP180;9970;-36.854;174.870;2023-09-08T01:17:57;102859.00;;;16.80
19644;BMP180;9970;-36.854;174.870;2023-09-08T01:20:40;102854.00;;;16.80
19644;BMP180;9970;-36.854;174.870;2023-09-08T01:23:21;102856.00;;;16.80
19644;BMP180;9970;-36.854;174.870;2023-09-08T01:26:03;102848.00;;;16.80
19644;BMP180;9970;-36.854;174.870;2023-09-08T01:28:34;102839.00;;;16.80
19644;BMP180;9970;-36.854;174.870;2023-09-08T01:31:08;102835.00;;;16.80
19644;BMP180;9970;-36.854;174.870;2023-09-08T01:33:42;102835.00;;;16.70
19644;BMP180;9970;-36.854;174.870;2023-09-08T01:36:15;102832.00;;;16.70
19644;BMP180;9970;-36.854;174.870;2023-09-08T01:38:48;102838.00;;;16.70
19644;BMP180;9970;-36.854;174.870;2023-09-08T01:41:24;102844.00;;;16.70
19644;BMP180;9970;-36.854;174.870;2023-09-08T01:43:57;102843.00;;;16.70
19644;BMP180;9970;-36.854;174.870;2023-09-08T01:46:32;102847.00;;;16.70
19644;BMP180;9970;-36.854;174.870;2023-09-08T01:49:05;102835.00;;;16.70
19644;BMP180;9970;-36.854;174.870;2023-09-08T01:51:38;102837.00;;;16.70
19644;BMP180;9970;-36.854;174.870;2023-09-08T01:54:11;102829.00;;;16.70
19644;BMP180;9970;-36.854;174.870;2023-09-08T01:56:44;102826.00;;;16.70
19644;BMP180;9970;-36.854;174.870;2023-09-08T01:59:21;102835.00;;;16.70
19644;BMP180;9970;-36.854;174.870;2023-09-08T02:01:54;102839.00;;;16.70
19644;BMP180;9970;-36.854;174.870;2023-09-08T02:04:28;102844.00;;;16.60
19644;BMP180;9970;-36.854;174.870;2023-09-08T02:07:01;102836.00;;;16.60
19644;BMP180;9970;-36.854;174.870;2023-09-08T02:09:38;102828.00;;;16.60
19644;BMP180;9970;-36.854;174.870;2023-09-08T02:12:11;102840.00;;;16.60
19644;BMP180;9970;-36.854;174.870;2023-09-08T02:14:44;102839.00;;;16.60
19644;BMP180;9970;-36.854;174.870;2023-09-08T02:17:18;102842.00;;;16.60
19644;BMP180;9970;-36.854;174.870;2023-09-08T02:19:51;102834.00;;;16.60
19644;BMP180;9970;-36.854;174.870;2023-09-08T02:22:24;102844.00;;;16.50
19644;BMP180;9970;-36.854;174.870;2023-09-08T02:24:57;102842.00;;;16.50
19644;BMP180;9970;-36.854;174.870;2023-09-08T02:27:30;102845.00;;;16.50
19644;BMP180;9970;-36.854;174.870;2023-09-08T02:30:03;102839.00;;;16.50
19644;BMP180;9970;-36.854;174.870;2023-09-08T02:32:36;102845.00;;;16.50
19644;BMP180;9970;-36.854;174.870;2023-09-08T02:35:12;102845.00;;;16.50
19644;BMP180;9970;-36.854;174.870;2023-09-08T02:37:43;102846.00;;;16.50
19644;BMP180;9970;-36.854;174.870;2023-09-08T02:40:16;102847.00;;;16.50
19644;BMP180;9970;-36.854;174.870;2023-09-08T02:42:51;102853.00;;;16.40
19644;BMP180;9970;-36.854;174.870;2023-09-08T02:45:44;102850.00;;;16.50
19644;BMP180;9970;-36.854;174.870;2023-09-08T02:48:18;102850.00;;;16.40
19644;BMP180;9970;-36.854;174.870;2023-09-08T02:50:51;102843.00;;;16.40
19644;BMP180;9970;-36.854;174.870;2023-09-08T02:53:25;102848.00;;;16.50
19644;BMP180;9970;-36.854;174.870;2023-09-08T02:55:59;102844.00;;;16.50
19644;BMP180;9970;-36.854;174.870;2023-09-08T02:58:34;102837.00;;;16.50
19644;BMP180;9970;-36.854;174.870;2023-09-08T03:01:17;102845.00;;;16.50
19644;BMP180;9970;-36.854;174.870;2023-09-08T03:03:54;102841.00;;;16.50
19644;BMP180;9970;-36.854;174.870;2023-09-08T03:06:27;102841.00;;;16.50
19644;BMP180;9970;-36.854;174.870;2023-09-08T03:09:00;102839.00;;;16.50
19644;BMP180;9970;-36.854;174.870;2023-09-08T03:11:33;102838.00;;;16.40
19644;BMP180;9970;-36.854;174.870;2023-09-08T03:14:08;102842.00;;;16.40
19644;BMP180;9970;-36.854;174.870;2023-09-08T03:16:41;102840.00;;;16.40
19644;BMP180;9970;-36.854;174.870;2023-09-08T03:19:14;102846.00;;;16.40
19644;BMP180;9970;-36.854;174.870;2023-09-08T03:21:47;102847.00;;;16.40
19644;BMP180;9970;-36.854;174.870;2023-09-08T03:24:20;102843.00;;;16.40
19644;BMP180;9970;-36.854;174.870;2023-09-08T03:26:53;102849.00;;;16.40
19644;BMP180;9970;-36.854;174.870;2023-09-08T03:29:26;102837.00;;;16.30
19644;BMP180;9970;-36.854;174.870;2023-09-08T03:31:59;102837.00;;;16.30
19644;BMP180;9970;-36.854;174.870;2023-09-08T03:34:42;102835.00;;;16.30
19644;BMP180;9970;-36.854;174.870;2023-09-08T03:37:10;102838.00;;;16.30
19644;BMP180;9970;-36.854;174.870;2023-09-08T03:39:43;102837.00;;;16.30
19644;BMP180;9970;-36.854;174.870;2023-09-08T03:42:16;102839.00;;;16.30
19644;BMP180;9970;-36.854;174.870;2023-09-08T03:44:49;102840.00;;;16.30
19644;BMP180;9970;-36.854;174.870;2023-09-08T03:47:22;102831.00;;;16.30
19644;BMP180;9970;-36.854;174.870;2023-09-08T03:49:55;102840.00;;;16.20
19644;BMP180;9970;-36.854;174.870;2023-09-08T03:52:29;102830.00;;;16.20
19644;BMP180;9970;-36.854;174.870;2023-09-08T03:55:02;102829.00;;;16.20
19644;BMP180;9970;-36.854;174.870;2023-09-08T03:57:34;102832.00;;;16.20
19644;BMP180;9970;-36.854;174.870;2023-09-08T04:00:13;102829.00;;;16.20
19644;BMP180;9970;-36.854;174.870;2023-09-08T04:02:47;102842.00;;;16.20
19644;BMP180;9970;-36.854;174.870;2023-09-08T04:05:21;102833.00;;;16.10
19644;BMP180;9970;-36.854;174.870;2023-09-08T04:07:54;102834.00;;;16.10
19644;BMP180;9970;-36.854;174.870;2023-09-08T04:10:27;102835.00;;;16.10
19644;BMP180;9970;-36.854;174.870;2023-09-08T04:13:00;102828.00;;;16.10
19644;BMP180;9970;-36.854;174.870;2023-09-08T04:15:33;102829.00;;;16.10
19644;BMP180;9970;-36.854;174.870;2023-09-08T04:18:06;102831.00;;;16.10
19644;BMP180;9970;-36.854;174.870;2023-09-08T04:20:39;102839.00;;;16.10
19644;BMP180;9970;-36.854;174.870;2023-09-08T04:23:13;102838.00;;;16.10
19644;BMP180;9970;-36.854;174.870;2023-09-08T04:25:47;102836.00;;;16.10
19644;BMP180;9970;-36.854;174.870;2023-09-08T04:28:19;102830.00;;;16.00
19644;BMP180;9970;-36.854;174.870;2023-09-08T04:30:53;102832.00;;;16.00
19644;BMP180;9970;-36.854;174.870;2023-09-08T04:33:26;102836.00;;;16.00
19644;BMP180;9970;-36.854;174.870;2023-09-08T04:36:00;102840.00;;;16.00
19644;BMP180;9970;-36.854;174.870;2023-09-08T04:38:33;102839.00;;;16.00
19644;BMP180;9970;-36.854;174.870;2023-09-08T04:41:06;102856.00;;;16.00
19644;BMP180;9970;-36.854;174.870;2023-09-08T04:43:39;102855.00;;;15.90
19644;BMP180;9970;-36.854;174.870;2023-09-08T04:46:13;102855.00;;;15.90
19644;BMP180;9970;-36.854;174.870;2023-09-08T04:48:47;102843.00;;;15.90
19644;BMP180;9970;-36.854;174.870;2023-09-08T04:51:20;102837.00;;;15.90
19644;BMP180;9970;-36.854;174.870;2023-09-08T04:53:53;102842.00;;;15.90
19644;BMP180;9970;-36.854;174.870;2023-09-08T04:56:28;102840.00;;;15.90
19644;BMP180;9970;-36.854;174.870;2023-09-08T04:59:01;102843.00;;;15.80
19644;BMP180;9970;-36.854;174.870;2023-09-08T05:01:34;102841.00;;;15.80
19644;BMP180;9970;-36.854;174.870;2023-09-08T05:04:08;102844.00;;;15.80
19644;BMP180;9970;-36.854;174.870;2023-09-08T05:06:42;102838.00;;;15.80
19644;BMP180;9970;-36.854;174.870;2023-09-08T05:09:15;102837.00;;;15.80
19644;BMP180;9970;-36.854;174.870;2023-09-08T05:11:48;102841.00;;;15.80
19644;BMP180;9970;-36.854;174.870;2023-09-08T05:14:21;102848.00;;;15.80
19644;BMP180;9970;-36.854;174.870;2023-09-08T05:16:55;102856.00;;;15.80
19644;BMP180;9970;-36.854;174.870;2023-09-08T05:19:28;102845.00;;;15.70
19644;BMP180;9970;-36.854;174.870;2023-09-08T05:22:01;102848.00;;;15.70
19644;BMP180;9970;-36.854;174.870;2023-09-08T05:24:34;102851.00;;;15.70
19644;BMP180;9970;-36.854;174.870;2023-09-08T05:27:08;102855.00;;;15.70
19644;BMP180;9970;-36.854;174.870;2023-09-08T05:29:41;102858.00;;;15.70
19644;BMP180;9970;-36.854;174.870;2023-09-08T05:32:14;102862.00;;;15.70
19644;BMP180;9970;-36.854;174.870;2023-09-08T05:34:47;102860.00;;;15.70
19644;BMP180;9970;-36.854;174.870;2023-09-08T05:37:20;102856.00;;;15.70
19644;BMP180;9970;-36.854;174.870;2023-09-08T05:39:53;102858.00;;;15.70
19644;BMP180;9970;-36.854;174.870;2023-09-08T05:42:26;102862.00;;;15.70
19644;BMP180;9970;-36.854;174.870;2023-09-08T05:45:25;102865.00;;;15.70
19644;BMP180;9970;-36.854;174.870;2023-09-08T05:47:59;102859.00;;;15.70
19644;BMP180;9970;-36.854;174.870;2023-09-08T05:50:32;102863.00;;;15.70
19644;BMP180;9970;-36.854;174.870;2023-09-08T05:53:09;102861.00;;;15.60
19644;BMP180;9970;-36.854;174.870;2023-09-08T05:55:42;102863.00;;;15.60
19644;BMP180;9970;-36.854;174.870;2023-09-08T05:58:15;102869.00;;;15.60
19644;BMP180;9970;-36.854;174.870;2023-09-08T06:00:48;102865.00;;;15.60
19644;BMP180;9970;-36.854;174.870;2023-09-08T06:03:21;102871.00;;;15.60
19644;BMP180;9970;-36.854;174.870;2023-09-08T06:05:54;102873.00;;;15.60
19644;BMP180;9970;-36.854;174.870;2023-09-08T06:08:28;102867.00;;;15.60
19644;BMP180;9970;-36.854;174.870;2023-09-08T06:11:01;102878.00;;;15.60
19644;BMP180;9970;-36.854;174.870;2023-09-08T06:13:34;102876.00;;;15.50
19644;BMP180;9970;-36.854;174.870;2023-09-08T06:16:07;102882.00;;;15.50
19644;BMP180;9970;-36.854;174.870;2023-09-08T06:18:40;102883.00;;;15.50
19644;BMP180;9970;-36.854;174.870;2023-09-08T06:21:14;102880.00;;;15.50
19644;BMP180;9970;-36.854;174.870;2023-09-08T06:23:47;102887.00;;;15.50
19644;BMP180;9970;-36.854;174.870;2023-09-08T06:26:20;102884.00;;;15.40
19644;BMP180;9970;-36.854;174.870;2023-09-08T06:28:53;102888.00;;;15.40
19644;BMP180;9970;-36.854;174.870;2023-09-08T06:31:26;102885.00;;;15.40
19644;BMP180;9970;-36.854;174.870;2023-09-08T06:33:59;102889.00;;;15.40
19644;BMP180;9970;-36.854;174.870;2023-09-08T06:36:33;102887.00;;;15.40
19644;BMP180;9970;-36.854;174.870;2023-09-08T06:39:06;102897.00;;;15.30
19644;BMP180;9970;-36.854;174.870;2023-09-08T06:41:39;102899.00;;;15.30
19644;BMP180;9970;-36.854;174.870;2023-09-08T06:44:16;102896.00;;;15.30
19644;BMP180;9970;-36.854;174.870;2023-09-08T06:46:49;102905.00;;;15.30
19644;BMP180;9970;-36.854;174.870;2023-09-08T06:49:22;102901.00;;;15.30
19644;BMP180;9970;-36.854;174.870;2023-09-08T06:51:59;102909.00;;;15.20
19644;BMP180;9970;-36.854;174.870;2023-09-08T06:54:32;102906.00;;;15.20
19644;BMP180;9970;-36.854;174.870;2023-09-08T06:57:05;102907.00;;;15.20
19644;BMP180;9970;-36.854;174.870;2023-09-08T06:59:38;102905.00;;;15.20
19644;BMP180;9970;-36.854;174.870;2023-09-08T07:02:11;102910.00;;;15.10
19644;BMP180;9970;-36.854;174.870;2023-09-08T07:04:45;102900.00;;;15.10
19644;BMP180;9970;-36.854;174.870;2023-09-08T07:07:18;102905.00;;;15.10
19644;BMP180;9970;-36.854;174.870;2023-09-08T07:09:52;102905.00;;;15.10
19644;BMP180;9970;-36.854;174.870;2023-09-08T07:12:26;102910.00;;;15.10
19644;BMP180;9970;-36.854;174.870;2023-09-08T07:14:59;102915.00;;;15.10
19644;BMP180;9970;-36.854;174.870;2023-09-08T07:17:32;102919.00;;;15.10
19644;BMP180;9970;-36.854;174.870;2023-09-08T07:20:06;102922.00;;;15.00
19644;BMP180;9970;-36.854;174.870;2023-09-08T07:22:39;102927.00;;;15.00
19644;BMP180;9970;-36.854;174.870;2023-09-08T07:25:12;102928.00;;;15.00
19644;BMP180;9970;-36.854;174.870;2023-09-08T07:27:45;102922.00;;;15.00
19644;BMP180;9970;-36.854;174.870;2023-09-08T07:30:19;102921.00;;;15.00
19644;BMP180;9970;-36.854;174.870;2023-09-08T07:32:52;102923.00;;;15.00
19644;BMP180;9970;-36.854;174.870;2023-09-08T07:35:25;102924.00;;;14.90
19644;BMP180;9970;-36.854;174.870;2023-09-08T07:37:58;102929.00;;;14.90
19644;BMP180;9970;-36.854;174.870;2023-09-08T07:40:31;102935.00;;;14.90
19644;BMP180;9970;-36.854;174.870;2023-09-08T07:43:04;102933.00;;;14.90
19644;BMP180;9970;-36.854;174.870;2023-09-08T07:45:37;102939.00;;;14.90
19644;BMP180;9970;-36.854;174.870;2023-09-08T07:48:11;102940.00;;;14.90
19644;BMP180;9970;-36.854;174.870;2023-09-08T07:50:45;102946.00;;;14.80
19644;BMP180;9970;-36.854;174.870;2023-09-08T07:53:18;102950.00;;;14.80
19644;BMP180;9970;-36.854;174.870;2023-09-08T07:55:51;102949.00;;;14.80
19644;BMP180;9970;-36.854;174.870;2023-09-08T07:58:24;102947.00;;;14.70
19644;BMP180;9970;-36.854;174.870;2023-09-08T08:00:57;102956.00;;;14.70
19644;BMP180;9970;-36.854;174.870;2023-09-08T08:03:30;102958.00;;;14.70
19644;BMP180;9970;-36.854;174.870;2023-09-08T08:06:04;102965.00;;;14.70
19644;BMP180;9970;-36.854;174.870;2023-09-08T08:08:46;102965.00;;;14.70
19644;BMP180;9970;-36.854;174.870;2023-09-08T08:11:19;102964.00;;;14.70
19644;BMP180;9970;-36.854;174.870;2023-09-08T08:13:52;102960.00;;;14.60
19644;BMP180;9970;-36.854;174.870;2023-09-08T08:16:29;102970.00;;;14.60
19644;BMP180;9970;-36.854;174.870;2023-09-08T08:18:59;102971.00;;;14.60
19644;BMP180;9970;-36.854;174.870;2023-09-08T08:21:32;102971.00;;;14.60
19644;BMP180;9970;-36.854;174.870;2023-09-08T08:24:06;102984.00;;;14.50
19644;BMP180;9970;-36.854;174.870;2023-09-08T08:26:39;102981.00;;;14.50
19644;BMP180;9970;-36.854;174.870;2023-09-08T08:29:12;102975.00;;;14.50
19644;BMP180;9970;-36.854;174.870;2023-09-08T08:31:45;102977.00;;;14.50
19644;BMP180;9970;-36.854;174.870;2023-09-08T08:34:18;102985.00;;;14.50
19644;BMP180;9970;-36.854;174.870;2023-09-08T08:36:51;102978.00;;;14.40
19644;BMP180;9970;-36.854;174.870;2023-09-08T08:39:24;102971.00;;;14.40
19644;BMP180;9970;-36.854;174.870;2023-09-08T08:41:57;102975.00;;;14.40
19644;BMP180;9970;-36.854;174.870;2023-09-08T08:44:30;102962.00;;;14.40
19644;BMP180;9970;-36.854;174.870;2023-09-08T08:47:04;102959.00;;;14.40
19644;BMP180;9970;-36.854;174.870;2023-09-08T08:49:37;102973.00;;;14.40
19644;BMP180;9970;-36.854;174.870;2023-09-08T08:52:15;102961.00;;;14.40
19644;BMP180;9970;-36.854;174.870;2023-09-08T08:54:49;102961.00;;;14.40
19644;BMP180;9970;-36.854;174.870;2023-09-08T08:57:25;102950.00;;;14.40
19644;BMP180;9970;-36.854;174.870;2023-09-08T09:00:02;102953.00;;;14.40
19644;BMP180;9970;-36.854;174.870;2023-09-08T09:02:42;102948.00;;;14.40
19644;BMP180;9970;-36.854;174.870;2023-09-08T09:05:15;102956.00;;;14.40
19644;BMP180;9970;-36.854;174.870;2023-09-08T09:07:49;102951.00;;;14.40
19644;BMP180;9970;-36.854;174.870;2023-09-08T09:10:23;102949.00;;;14.40
19644;BMP180;9970;-36.854;174.870;2023-09-08T09:12:56;102959.00;;;14.40
19644;BMP180;9970;-36.854;174.870;2023-09-08T09:15:30;102954.00;;;14.40
19644;BMP180;9970;-36.854;174.870;2023-09-08T09:18:05;102963.00;;;14.40
19644;BMP180;9970;-36.854;174.870;2023-09-08T09:20:39;102957.00;;;14.40
19644;BMP180;9970;-36.854;174.870;2023-09-08T09:23:26;102956.00;;;14.40
19644;BMP180;9970;-36.854;174.870;2023-09-08T09:25:51;102950.00;;;14.40
19644;BMP180;9970;-36.854;174.870;2023-09-08T09:28:25;102952.00;;;14.30
19644;BMP180;9970;-36.854;174.870;2023-09-08T09:30:59;102947.00;;;14.30
19644;BMP180;9970;-36.854;174.870;2023-09-08T09:33:32;102956.00;;;14.30
19644;BMP180;9970;-36.854;174.870;2023-09-08T09:36:05;102964.00;;;14.30
19644;BMP180;9970;-36.854;174.870;2023-09-08T09:38:39;102954.00;;;14.30
19644;BMP180;9970;-36.854;174.870;2023-09-08T09:41:13;102957.00;;;14.30
19644;BMP180;9970;-36.854;174.870;2023-09-08T09:43:47;102966.00;;;14.20
19644;BMP180;9970;-36.854;174.870;2023-09-08T09:46:20;102971.00;;;14.20
19644;BMP180;9970;-36.854;174.870;2023-09-08T09:48:54;102969.00;;;14.20
19644;BMP180;9970;-36.854;174.870;2023-09-08T09:51:31;102964.00;;;14.30
19644;BMP180;9970;-36.854;174.870;2023-09-08T09:54:04;102971.00;;;14.20
19644;BMP180;9970;-36.854;174.870;2023-09-08T09:56:39;102974.00;;;14.20
19644;BMP180;9970;-36.854;174.870;2023-09-08T09:59:13;102974.00;;;14.20
19644;BMP180;9970;-36.854;174.870;2023-09-08T10:01:46;102972.00;;;14.20
19644;BMP180;9970;-36.854;174.870;2023-09-08T10:04:19;102969.00;;;14.30
19644;BMP180;9970;-36.854;174.870;2023-09-08T10:06:55;102970.00;;;14.30
19644;BMP180;9970;-36.854;174.870;2023-09-08T10:09:29;102977.00;;;14.20
19644;BMP180;9970;-36.854;174.870;2023-09-08T10:12:03;102969.00;;;14.20
19644;BMP180;9970;-36.854;174.870;2023-09-08T10:14:38;102971.00;;;14.20
19644;BMP180;9970;-36.854;174.870;2023-09-08T10:17:13;102966.00;;;14.20
19644;BMP180;9970;-36.854;174.870;2023-09-08T10:19:46;102971.00;;;14.20
19644;BMP180;9970;-36.854;174.870;2023-09-08T10:22:21;102975.00;;;14.20
19644;BMP180;9970;-36.854;174.870;2023-09-08T10:24:58;102968.00;;;14.20
19644;BMP180;9970;-36.854;174.870;2023-09-08T10:27:32;102972.00;;;14.20
19644;BMP180;9970;-36.854;174.870;2023-09-08T10:30:08;102970.00;;;14.20
19644;BMP180;9970;-36.854;174.870;2023-09-08T10:32:42;102968.00;;;14.30
19644;BMP180;9970;-36.854;174.870;2023-09-08T10:35:15;102969.00;;;14.20
19644;BMP180;9970;-36.854;174.870;2023-09-08T10:37:50;102956.00;;;14.30
19644;BMP180;9970;-36.854;174.870;2023-09-08T10:40:23;102951.00;;;14.20
19644;BMP180;9970;-36.854;174.870;2023-09-08T10:43:11;102954.00;;;14.20
19644;BMP180;9970;-36.854;174.870;2023-09-08T10:45:43;102959.00;;;14.20
19644;BMP180;9970;-36.854;174.870;2023-09-08T10:48:16;102954.00;;;14.20
19644;BMP180;9970;-36.854;174.870;2023-09-08T10:50:49;102965.00;;;14.20
19644;BMP180;9970;-36.854;174.870;2023-09-08T10:53:22;102959.00;;;14.20
19644;BMP180;9970;-36.854;174.870;2023-09-08T10:55:55;102949.00;;;14.20
19644;BMP180;9970;-36.854;174.870;2023-09-08T10:58:33;102958.00;;;14.20
19644;BMP180;9970;-36.854;174.870;2023-09-08T11:01:07;102959.00;;;14.20
19644;BMP180;9970;-36.854;174.870;2023-09-08T11:06:17;102951.00;;;14.20
19644;BMP180;9970;-36.854;174.870;2023-09-08T11:08:50;102947.00;;;14.20
19644;BMP180;9970;-36.854;174.870;2023-09-08T11:11:25;102940.00;;;14.20
19644;BMP180;9970;-36.854;174.870;2023-09-08T11:13:58;102939.00;;;14.20
19644;BMP180;9970;-36.854;174.870;2023-09-08T11:16:31;102952.00;;;14.30
19644;BMP180;9970;-36.854;174.870;2023-09-08T11:19:05;102958.00;;;14.30
19644;BMP180;9970;-36.854;174.870;2023-09-08T11:21:42;102961.00;;;14.30
19644;BMP180;9970;-36.854;174.870;2023-09-08T11:24:16;102961.00;;;14.30
19644;BMP180;9970;-36.854;174.870;2023-09-08T11:26:49;102956.00;;;14.30
19644;BMP180;9970;-36.854;174.870;2023-09-08T11:29:22;102951.00;;;14.30
19644;BMP180;9970;-36.854;174.870;2023-09-08T11:31:55;102954.00;;;14.30
19644;BMP180;9970;-36.854;174.870;2023-09-08T11:34:29;102962.00;;;14.30
19644;BMP180;9970;-36.854;174.870;2023-09-08T11:37:11;102965.00;;;14.30
19644;BMP180;9970;-36.854;174.870;2023-09-08T11:39:40;102957.00;;;14.30
19644;BMP180;9970;-36.854;174.870;2023-09-08T11:42:14;102959.00;;;14.30
19644;BMP180;9970;-36.854;174.870;2023-09-08T11:44:48;102959.00;;;14.30
19644;BMP180;9970;-36.854;174.870;2023-09-08T11:47:22;102957.00;;;14.30
19644;BMP180;9970;-36.854;174.870;2023-09-08T11:49:55;102961.00;;;14.30
19644;BMP180;9970;-36.854;174.870;2023-09-08T11:52:29;102957.00;;;14.30
19644;BMP180;9970;-36.854;174.870;2023-09-08T11:55:03;102951.00;;;14.30
19644;BMP180;9970;-36.854;174.870;2023-09-08T11:57:37;102956.00;;;14.30
19644;BMP180;9970;-36.854;174.870;2023-09-08T12:00:11;102964.00;;;14.30
19644;BMP180;9970;-36.854;174.870;2023-09-08T12:02:46;102962.00;;;14.30
19644;BMP180;9970;-36.854;174.870;2023-09-08T12:05:26;102962.00;;;14.30
19644;BMP180;9970;-36.854;174.870;2023-09-08T12:07:59;102961.00;;;14.30
19644;BMP180;9970;-36.854;174.870;2023-09-08T12:10:40;102959.00;;;14.40
19644;BMP180;9970;-36.854;174.870;2023-09-08T12:13:15;102961.00;;;14.40
19644;BMP180;9970;-36.854;174.870;2023-09-08T12:15:47;102965.00;;;14.40
19644;BMP180;9970;-36.854;174.870;2023-09-08T12:18:36;102965.00;;;14.40
19644;BMP180;9970;-36.854;174.870;2023-09-08T12:21:05;102963.00;;;14.40
19644;BMP180;9970;-36.854;174.870;2023-09-08T12:23:48;102974.00;;;14.40
19644;BMP180;9970;-36.854;174.870;2023-09-08T12:26:22;102973.00;;;14.40
19644;BMP180;9970;-36.854;174.870;2023-09-08T12:28:55;102973.00;;;14.40
19644;BMP180;9970;-36.854;174.870;2023-09-08T12:31:28;102969.00;;;14.40
19644;BMP180;9970;-36.854;174.870;2023-09-08T12:34:02;102974.00;;;14.40
19644;BMP180;9970;-36.854;174.870;2023-09-08T12:36:36;102972.00;;;14.40
19644;BMP180;9970;-36.854;174.870;2023-09-08T12:39:12;102973.00;;;14.40
19644;BMP180;9970;-36.854;174.870;2023-09-08T12:41:45;102973.00;;;14.40
19644;BMP180;9970;-36.854;174.870;2023-09-08T12:44:18;102971.00;;;14.40
19644;BMP180;9970;-36.854;174.870;2023-09-08T12:46:52;102976.00;;;14.40
19644;BMP180;9970;-36.854;174.870;2023-09-08T12:49:26;102964.00;;;14.40
19644;BMP180;9970;-36.854;174.870;2023-09-08T12:51:59;102974.00;;;14.40
19644;BMP180;9970;-36.854;174.870;2023-09-08T12:54:38;102971.00;;;14.40
19644;BMP180;9970;-36.854;174.870;2023-09-08T12:57:11;102977.00;;;14.40
19644;BMP180;9970;-36.854;174.870;2023-09-08T12:59:44;102979.00;;;14.50
19644;BMP180;9970;-36.854;174.870;2023-09-08T13:02:18;102988.00;;;14.50
19644;BMP180;9970;-36.854;174.870;2023-09-08T13:04:51;102989.00;;;14.50
19644;BMP180;9970;-36.854;174.870;2023-09-08T13:07:25;102986.00;;;14.50
19644;BMP180;9970;-36.854;174.870;2023-09-08T13:09:58;102985.00;;;14.50
19644;BMP180;9970;-36.854;174.870;2023-09-08T13:12:33;102985.00;;;14.40
19644;BMP180;9970;-36.854;174.870;2023-09-08T13:15:08;102983.00;;;14.50
19644;BMP180;9970;-36.854;174.870;2023-09-08T13:17:44;102989.00;;;14.40
19644;BMP180;9970;-36.854;174.870;2023-09-08T13:20:20;102984.00;;;14.40
19644;BMP180;9970;-36.854;174.870;2023-09-08T13:22:53;102986.00;;;14.40
19644;BMP180;9970;-36.854;174.870;2023-09-08T13:25:29;102978.00;;;14.40
19644;BMP180;9970;-36.854;174.870;2023-09-08T13:28:09;102983.00;;;14.40
19644;BMP180;9970;-36.854;174.870;2023-09-08T13:30:42;102977.00;;;14.40
19644;BMP180;9970;-36.854;174.870;2023-09-08T13:33:16;102975.00;;;14.40
19644;BMP180;9970;-36.854;174.870;2023-09-08T13:35:49;102981.00;;;14.50
19644;BMP180;9970;-36.854;174.870;2023-09-08T13:38:21;102982.00;;;14.40
19644;BMP180;9970;-36.854;174.870;2023-09-08T13:40:55;102984.00;;;14.40
19644;BMP180;9970;-36.854;174.870;2023-09-08T13:43:28;102979.00;;;14.40
19644;BMP180;9970;-36.854;174.870;2023-09-08T13:46:01;102978.00;;;14.40
19644;BMP180;9970;-36.854;174.870;2023-09-08T13:48:41;102976.00;;;14.40
19644;BMP180;9970;-36.854;174.870;2023-09-08T13:51:15;102970.00;;;14.40
19644;BMP180;9970;-36.854;174.870;2023-09-08T13:53:50;102977.00;;;14.50
19644;BMP180;9970;-36.854;174.870;2023-09-08T13:56:24;102969.00;;;14.40
19644;BMP180;9970;-36.854;174.870;2023-09-08T13:59:02;102971.00;;;14.40
19644;BMP180;9970;-36.854;174.870;2023-09-08T14:01:36;102965.00;;;14.40
19644;BMP180;9970;-36.854;174.870;2023-09-08T14:04:10;102973.00;;;14.40
19644;BMP180;9970;-36.854;174.870;2023-09-08T14:06:47;102961.00;;;14.40
19644;BMP180;9970;-36.854;174.870;2023-09-08T14:09:21;102964.00;;;14.40
19644;BMP180;9970;-36.854;174.870;2023-09-08T14:11:55;102962.00;;;14.40